createdAt,value
2022-08-26T00:01:37.933Z,2.58
2022-08-26T00:04:04.773Z,2.20
2022-08-26T00:06:32.783Z,2.00
2022-08-26T00:09:00.054Z,2.30
2022-08-26T00:11:27.703Z,2.45
2022-08-26T00:13:55.579Z,2.40
2022-08-26T00:16:25.202Z,1.92
2022-08-26T00:18:53.152Z,2.10
2022-08-26T00:21:20.946Z,2.17
2022-08-26T00:23:48.587Z,2.40
2022-08-26T00:26:15.814Z,2.55
2022-08-26T00:28:42.575Z,2.08
2022-08-26T00:31:11.021Z,2.15
2022-08-26T00:33:39.016Z,1.92
2022-08-26T00:36:06.609Z,1.75
2022-08-26T00:38:34.758Z,2.35
2022-08-26T00:41:05.265Z,2.55
2022-08-26T00:43:39.538Z,2.17
2022-08-26T00:46:17.310Z,3.20
2022-08-26T00:48:47.517Z,2.20
2022-08-26T00:51:19.832Z,2.35
2022-08-26T00:53:52.083Z,2.15
2022-08-26T00:56:26.893Z,2.92
2022-08-26T00:58:56.823Z,1.80
2022-08-26T01:01:23.432Z,2.58
2022-08-26T01:03:50.293Z,1.98
2022-08-26T01:06:17.226Z,2.15
2022-08-26T01:08:43.859Z,1.85
2022-08-26T01:11:11.848Z,1.88
2022-08-26T01:13:39.361Z,1.75
2022-08-26T01:16:08.402Z,2.05
2022-08-26T01:18:35.951Z,2.20
2022-08-26T01:21:29.834Z,2.17
2022-08-26T01:23:58.160Z,1.50
2022-08-26T01:26:31.277Z,2.22
2022-08-26T01:29:03.242Z,1.88
2022-08-26T01:31:39.174Z,1.88
2022-08-26T01:34:20.395Z,1.83
2022-08-26T01:36:51.507Z,2.15
2022-08-26T01:39:18.907Z,1.98
2022-08-26T01:41:46.236Z,2.17
2022-08-26T01:44:17.566Z,1.85
2022-08-26T01:46:46.710Z,1.67
2022-08-26T01:49:16.342Z,2.13
2022-08-26T01:51:44.510Z,1.83
2022-08-26T01:54:13.769Z,1.92
2022-08-26T01:56:40.722Z,2.28
2022-08-26T01:59:10.759Z,1.83
2022-08-26T02:01:39.237Z,1.90
2022-08-26T02:04:18.002Z,2.20
2022-08-26T02:06:45.117Z,2.67
2022-08-26T02:09:15.285Z,1.90
2022-08-26T02:11:42.145Z,1.63
2022-08-26T02:14:13.128Z,1.77
2022-08-26T02:16:42.918Z,1.83
2022-08-26T02:19:20.380Z,1.48
2022-08-26T02:21:51.230Z,1.77
2022-08-26T02:24:27.369Z,1.63
2022-08-26T02:26:55.995Z,1.83
2022-08-26T02:29:32.877Z,1.85
2022-08-26T02:31:59.500Z,1.35
2022-08-26T02:34:32.118Z,2.05
2022-08-26T02:37:06.976Z,1.27
2022-08-26T02:39:36.621Z,1.42
2022-08-26T02:42:04.875Z,1.20
2022-08-26T02:44:32.439Z,1.65
2022-08-26T02:47:00.274Z,1.80
2022-08-26T02:49:27.524Z,1.58
2022-08-26T02:51:54.212Z,1.30
2022-08-26T02:54:24.319Z,1.80
2022-08-26T02:56:51.477Z,1.42
2022-08-26T02:59:18.226Z,1.50
2022-08-26T03:01:49.646Z,1.33
2022-08-26T03:04:16.632Z,1.48
2022-08-26T03:06:43.340Z,1.80
2022-08-26T03:09:18.570Z,1.55
2022-08-26T03:11:47.389Z,1.10
2022-08-26T03:14:14.054Z,1.77
2022-08-26T03:16:41.105Z,1.63
2022-08-26T03:19:09.601Z,1.45
2022-08-26T03:21:37.674Z,1.40
2022-08-26T03:24:05.080Z,1.75
2022-08-26T03:26:31.749Z,1.50
2022-08-26T03:29:16.721Z,1.35
2022-08-26T03:31:43.706Z,1.38
2022-08-26T03:34:13.643Z,1.65
2022-08-26T03:36:40.873Z,1.92
2022-08-26T03:39:10.306Z,1.75
2022-08-26T03:41:38.503Z,1.67
2022-08-26T03:44:06.495Z,1.48
2022-08-26T03:46:33.643Z,1.60
2022-08-26T03:49:01.926Z,1.88
2022-08-26T03:51:29.229Z,2.03
2022-08-26T03:53:57.077Z,1.58
2022-08-26T03:56:23.926Z,1.30
2022-08-26T03:58:58.803Z,2.00
2022-08-26T04:01:27.707Z,1.90
2022-08-26T04:04:00.833Z,1.63
2022-08-26T04:08:56.613Z,2.05
2022-08-26T04:11:28.660Z,1.63
2022-08-26T04:14:00.631Z,1.60
2022-08-26T04:16:29.488Z,2.22
2022-08-26T04:18:57.184Z,1.58
2022-08-26T04:21:24.974Z,1.63
2022-08-26T04:23:52.188Z,1.65
2022-08-26T04:26:20.679Z,2.20
2022-08-26T04:28:48.277Z,1.45
2022-08-26T04:31:17.489Z,1.65
2022-08-26T04:33:49.580Z,1.80
2022-08-26T04:36:17.564Z,1.45
2022-08-26T04:38:46.761Z,2.20
2022-08-26T04:41:15.208Z,1.80
2022-08-26T04:43:44.217Z,1.55
2022-08-26T04:46:13.055Z,1.63
2022-08-26T04:48:41.300Z,1.70
2022-08-26T04:51:09.928Z,1.77
2022-08-26T04:53:37.379Z,1.73
2022-08-26T04:56:04.535Z,1.73
2022-08-26T04:58:31.287Z,2.00
2022-08-26T05:00:58.518Z,1.90
2022-08-26T05:03:27.344Z,1.90
2022-08-26T05:05:58.711Z,2.25
2022-08-26T05:08:25.663Z,2.45
2022-08-26T05:10:59.388Z,2.40
2022-08-26T05:13:27.867Z,1.92
2022-08-26T05:15:54.726Z,2.25
2022-08-26T05:18:27.518Z,1.77
2022-08-26T05:20:54.645Z,2.75
2022-08-26T05:23:25.404Z,1.70
2022-08-26T05:25:58.821Z,1.55
2022-08-26T05:28:28.381Z,2.00
2022-08-26T05:30:55.958Z,2.40
2022-08-26T05:33:23.054Z,2.13
2022-08-26T05:35:49.950Z,1.80
2022-08-26T05:38:20.272Z,1.55
2022-08-26T05:40:52.679Z,1.80
2022-08-26T05:43:21.309Z,2.00
2022-08-26T05:45:50.086Z,1.83
2022-08-26T05:48:22.754Z,1.63
2022-08-26T05:50:53.463Z,1.95
2022-08-26T05:53:21.834Z,1.95
2022-08-26T05:55:50.971Z,1.67
2022-08-26T05:58:22.342Z,1.90
2022-08-26T06:01:10.580Z,2.30
2022-08-26T06:03:40.382Z,2.00
2022-08-26T06:06:09.937Z,2.85
2022-08-26T06:08:37.876Z,1.90
2022-08-26T06:11:07.366Z,1.67
2022-08-26T06:13:35.119Z,2.55
2022-08-26T06:16:05.531Z,2.92
2022-08-26T06:18:36.444Z,3.05
2022-08-26T06:21:16.805Z,4.05
2022-08-26T06:24:04.221Z,3.05
2022-08-26T06:26:31.834Z,3.40
2022-08-26T06:28:59.176Z,3.33
2022-08-26T06:31:26.824Z,4.28
2022-08-26T06:33:54.892Z,4.28
2022-08-26T06:36:24.353Z,4.00
2022-08-26T06:38:53.229Z,3.70
2022-08-26T06:41:21.509Z,3.75
2022-08-26T06:43:51.799Z,3.80
2022-08-26T06:46:20.397Z,3.08
2022-08-26T06:48:47.739Z,3.47
2022-08-26T06:51:18.041Z,3.50
2022-08-26T06:53:47.033Z,3.00
2022-08-26T06:56:19.277Z,2.75
2022-08-26T06:58:45.939Z,3.35
2022-08-26T07:01:28.481Z,2.22
2022-08-26T07:03:57.816Z,2.28
2022-08-26T07:06:26.537Z,2.15
2022-08-26T07:08:54.986Z,2.30
2022-08-26T07:11:21.568Z,2.15
2022-08-26T07:13:48.248Z,2.15
2022-08-26T07:16:18.089Z,2.28
2022-08-26T07:18:46.773Z,2.63
2022-08-26T07:21:17.309Z,2.28
2022-08-26T07:23:45.444Z,2.78
2022-08-26T07:26:19.384Z,1.92
2022-08-26T07:28:48.866Z,1.53
2022-08-26T07:31:17.588Z,2.05
2022-08-26T07:33:44.672Z,2.25
2022-08-26T07:36:13.158Z,2.42
2022-08-26T07:38:40.772Z,1.60
2022-08-26T07:41:09.029Z,1.88
2022-08-26T07:43:37.225Z,1.73
2022-08-26T07:46:06.658Z,1.80
2022-08-26T07:48:34.425Z,1.90
2022-08-26T07:51:02.990Z,1.58
2022-08-26T07:53:29.604Z,1.52
2022-08-26T07:55:56.142Z,1.60
2022-08-26T07:58:22.672Z,1.92
2022-08-26T08:00:49.720Z,1.60
2022-08-26T08:03:16.358Z,2.20
2022-08-26T08:05:44.110Z,1.40
2022-08-26T08:08:26.960Z,2.10
2022-08-26T08:10:56.491Z,1.55
2022-08-26T08:13:24.328Z,2.38
2022-08-26T08:15:54.535Z,1.75
2022-08-26T08:18:23.199Z,3.42
2022-08-26T08:20:59.178Z,2.38
2022-08-26T08:23:32.897Z,2.08
2022-08-26T08:26:09.311Z,1.38
2022-08-26T08:28:37.279Z,1.88
2022-08-26T08:31:05.276Z,2.10
2022-08-26T08:33:33.872Z,1.73
2022-08-26T08:36:01.172Z,2.20
2022-08-26T08:38:29.365Z,2.28
2022-08-26T08:40:55.960Z,2.00
2022-08-26T08:43:28.820Z,2.00
2022-08-26T08:51:19.033Z,2.08
2022-08-26T08:53:49.485Z,2.63
2022-08-26T08:56:30.254Z,6.60
2022-08-26T08:59:09.010Z,2.00
2022-08-26T09:02:02.815Z,1.70
2022-08-26T09:07:12.494Z,4.97
2022-08-26T09:09:49.207Z,5.50
2022-08-26T09:12:29.621Z,2.42
2022-08-26T09:15:46.279Z,1.88
2022-08-26T09:18:24.921Z,1.50
2022-08-26T09:21:12.983Z,1.83
2022-08-26T09:23:42.912Z,1.10
2022-08-26T09:26:21.448Z,1.70
2022-08-26T09:29:02.498Z,1.40
2022-08-26T09:31:32.910Z,1.77
2022-08-26T09:34:07.938Z,1.80
2022-08-26T09:36:41.063Z,2.08
2022-08-26T09:39:31.808Z,1.65
2022-08-26T09:42:09.494Z,1.75
2022-08-26T09:44:52.055Z,1.67
2022-08-26T09:47:25.751Z,1.42
2022-08-26T09:50:20.403Z,1.17
2022-08-26T09:52:47.093Z,2.45
2022-08-26T09:55:22.563Z,1.60
2022-08-26T09:57:54.971Z,1.40
2022-08-26T10:00:38.739Z,1.50
2022-08-26T10:03:24.044Z,1.60
2022-08-26T10:06:03.027Z,1.45
2022-08-26T10:08:38.264Z,1.27
2022-08-26T10:11:38.487Z,1.50
2022-08-26T10:14:34.474Z,1.73
2022-08-26T10:17:32.931Z,1.38
2022-08-26T10:20:22.574Z,3.10
2022-08-26T10:23:12.633Z,1.05
2022-08-26T10:25:51.785Z,1.15
2022-08-26T10:28:52.241Z,1.30
2022-08-26T10:31:48.206Z,1.40
2022-08-26T10:34:19.189Z,1.35
2022-08-26T10:37:15.790Z,1.60
2022-08-26T10:39:59.037Z,2.22
2022-08-26T10:42:44.569Z,1.63
2022-08-26T10:45:15.495Z,1.45
2022-08-26T10:47:48.592Z,1.70
2022-08-26T10:50:18.101Z,1.63
2022-08-26T10:53:08.321Z,2.05
2022-08-26T10:55:50.486Z,1.50
2022-08-26T10:58:44.516Z,1.80
2022-08-26T11:01:42.914Z,1.35
2022-08-26T11:04:38.292Z,1.27
2022-08-26T11:07:32.524Z,1.52
2022-08-26T11:10:02.026Z,1.50
2022-08-26T11:12:38.672Z,1.60
2022-08-26T11:15:26.794Z,1.60
2022-08-26T11:18:00.284Z,1.73
2022-08-26T11:20:29.991Z,1.40
2022-08-26T11:23:28.199Z,1.83
2022-08-26T11:26:10.287Z,1.35
2022-08-26T11:28:39.796Z,1.90
2022-08-26T11:31:24.528Z,1.48
2022-08-26T11:33:59.132Z,1.83
2022-08-26T11:36:41.584Z,1.92
2022-08-26T11:39:29.665Z,1.38
2022-08-26T11:42:20.179Z,2.13
2022-08-26T11:44:49.030Z,1.98
2022-08-26T11:47:24.956Z,1.60
2022-08-26T11:50:06.596Z,1.98
2022-08-26T11:52:33.240Z,1.20
2022-08-26T11:55:05.607Z,2.50
2022-08-26T11:57:35.272Z,2.80
2022-08-26T12:00:02.731Z,2.35
2022-08-26T12:02:29.408Z,1.48
2022-08-26T12:04:56.832Z,1.30
2022-08-26T12:07:29.264Z,1.33
2022-08-26T12:10:02.252Z,1.27
2022-08-26T12:15:16.090Z,1.15
2022-08-26T12:17:44.719Z,1.27
2022-08-26T12:20:45.878Z,1.40
2022-08-26T12:23:43.381Z,1.20
2022-08-26T12:26:12.984Z,0.98
2022-08-26T12:29:12.861Z,1.00
2022-08-26T12:32:08.105Z,0.95
2022-08-26T12:34:35.129Z,0.95
2022-08-26T12:37:02.951Z,1.08
2022-08-26T12:39:33.373Z,1.10
2022-08-26T12:42:02.111Z,1.40
2022-08-26T12:44:32.272Z,1.45
2022-08-26T12:47:08.368Z,1.00
2022-08-26T12:49:37.249Z,1.40
2022-08-26T12:52:06.561Z,1.13
2022-08-26T12:54:56.727Z,1.52
2022-08-26T12:57:36.232Z,1.27
2022-08-26T13:00:30.970Z,1.02
2022-08-26T13:02:58.847Z,1.20
2022-08-26T13:05:28.927Z,1.20
2022-08-26T13:08:25.399Z,0.90
2022-08-26T13:11:10.335Z,0.98
2022-08-26T13:13:37.652Z,1.02
2022-08-26T13:16:07.579Z,1.25
2022-08-26T13:18:34.307Z,1.00
2022-08-26T13:21:01.037Z,1.17
2022-08-26T13:23:27.906Z,1.33
2022-08-26T13:25:54.429Z,1.05
2022-08-26T13:28:21.144Z,1.30
2022-08-26T13:30:49.674Z,1.35
2022-08-26T13:33:18.482Z,1.48
2022-08-26T13:35:45.257Z,1.67
2022-08-26T13:38:32.916Z,1.15
2022-08-26T13:41:00.453Z,1.17
2022-08-26T13:43:27.701Z,1.25
2022-08-26T13:45:54.604Z,1.65
2022-08-26T13:48:23.316Z,1.13
2022-08-26T13:50:50.844Z,1.10
2022-08-26T13:53:18.721Z,1.20
2022-08-26T13:55:45.246Z,1.63
2022-08-26T13:58:12.416Z,1.45
2022-08-26T14:00:39.708Z,1.65
2022-08-26T14:03:11.337Z,1.70
2022-08-26T14:05:39.797Z,1.10
2022-08-26T14:08:06.833Z,1.38
2022-08-26T14:10:33.583Z,1.73
2022-08-26T14:13:00.139Z,1.52
2022-08-26T14:15:27.656Z,1.40
2022-08-26T14:17:56.102Z,1.23
2022-08-26T14:20:27.185Z,1.67
2022-08-26T14:25:43.446Z,1.73
2022-08-26T14:28:09.950Z,1.50
2022-08-26T14:30:39.966Z,1.63
2022-08-26T14:33:16.658Z,1.75
2022-08-26T14:35:47.875Z,1.60
2022-08-26T14:38:16.514Z,1.77
2022-08-26T14:40:45.007Z,1.90
2022-08-26T14:43:16.415Z,1.88
2022-08-26T14:45:45.150Z,1.63
2022-08-26T14:48:11.745Z,2.13
2022-08-26T14:50:38.368Z,2.10
2022-08-26T14:53:23.798Z,2.60
2022-08-26T14:55:50.567Z,1.83
2022-08-26T14:58:17.209Z,1.65
2022-08-26T15:00:44.058Z,2.00
2022-08-26T15:03:10.823Z,1.70
2022-08-26T15:05:38.050Z,2.00
2022-08-26T15:08:10.372Z,1.52
2022-08-26T15:10:37.459Z,1.80
2022-08-26T15:13:06.313Z,1.60
2022-08-26T15:15:32.824Z,1.90
2022-08-26T15:17:59.434Z,1.67
2022-08-26T15:20:26.122Z,1.75
2022-08-26T15:22:52.748Z,1.67
2022-08-26T15:25:30.312Z,1.75
2022-08-26T15:27:57.013Z,2.13
2022-08-26T15:30:27.476Z,1.73
2022-08-26T15:32:54.009Z,1.70
2022-08-26T15:35:20.672Z,1.38
2022-08-26T15:37:47.215Z,1.95
2022-08-26T15:40:14.178Z,1.55
2022-08-26T15:43:18.547Z,2.40
2022-08-26T15:45:54.611Z,2.00
2022-08-26T15:48:25.104Z,2.38
2022-08-26T15:50:54.750Z,1.42
2022-08-26T15:53:22.956Z,2.20
2022-08-26T15:55:50.079Z,1.85
2022-08-26T15:58:22.451Z,1.85
2022-08-26T16:03:16.696Z,1.70
2022-08-26T16:05:43.682Z,2.03
2022-08-26T16:08:11.490Z,1.30
2022-08-26T16:10:46.502Z,1.50
2022-08-26T16:13:16.452Z,2.33
2022-08-26T16:15:43.388Z,1.90
2022-08-26T16:18:10.013Z,1.67
2022-08-26T16:20:58.560Z,2.22
2022-08-26T16:23:34.986Z,1.17
2022-08-26T16:26:10.500Z,1.30
2022-08-26T16:28:37.662Z,1.80
2022-08-26T16:31:04.918Z,1.60
2022-08-26T16:33:31.506Z,1.40
2022-08-26T16:35:58.697Z,1.25
2022-08-26T16:38:25.233Z,1.52
2022-08-26T16:40:51.843Z,1.65
2022-08-26T16:43:18.436Z,1.70
2022-08-26T16:45:45.001Z,1.60
2022-08-26T16:48:11.550Z,1.67
2022-08-26T16:50:40.578Z,1.80
2022-08-26T16:53:07.911Z,1.90
2022-08-26T16:55:35.408Z,1.58
2022-08-26T16:58:02.298Z,1.20
2022-08-26T17:00:32.084Z,1.55
2022-08-26T17:03:00.959Z,1.58
2022-08-26T17:05:28.872Z,1.38
2022-08-26T17:07:56.412Z,1.75
2022-08-26T17:10:24.594Z,1.52
2022-08-26T17:12:51.628Z,1.67
2022-08-26T17:15:19.029Z,1.92
2022-08-26T17:17:47.690Z,1.75
2022-08-26T17:20:16.256Z,1.92
2022-08-26T17:22:47.189Z,1.45
2022-08-26T17:25:25.191Z,1.90
2022-08-26T17:27:52.628Z,1.77
2022-08-26T17:30:20.414Z,1.38
2022-08-26T17:32:47.415Z,1.70
2022-08-26T17:35:15.355Z,1.85
2022-08-26T17:37:41.939Z,1.67
2022-08-26T17:40:11.896Z,1.67
2022-08-26T17:42:39.933Z,2.05
2022-08-26T17:45:07.720Z,2.47
2022-08-26T17:47:34.443Z,2.20
2022-08-26T17:50:01.611Z,1.83
2022-08-26T17:52:29.208Z,1.63
2022-08-26T17:54:56.419Z,2.13
2022-08-26T17:57:26.369Z,2.40
2022-08-26T17:59:54.202Z,2.60
2022-08-26T18:02:21.352Z,3.03
2022-08-26T18:04:48.574Z,2.65
2022-08-26T18:07:16.506Z,2.20
2022-08-26T18:09:44.167Z,2.00
2022-08-26T18:12:11.800Z,2.13
2022-08-26T18:14:38.867Z,2.33
2022-08-26T18:17:05.738Z,2.35
2022-08-26T18:19:32.607Z,2.80
2022-08-26T18:21:59.524Z,3.03
2022-08-26T18:24:28.764Z,2.75
2022-08-26T18:26:55.569Z,2.10
2022-08-26T18:29:22.471Z,1.73
2022-08-26T18:31:49.798Z,2.45
2022-08-26T18:34:16.992Z,1.80
2022-08-26T18:36:44.153Z,1.95
2022-08-26T18:39:13.022Z,2.00
2022-08-26T18:41:43.335Z,2.22
2022-08-26T18:44:13.620Z,2.42
2022-08-26T18:46:41.775Z,2.10
2022-08-26T18:49:10.711Z,2.35
2022-08-26T18:51:37.970Z,1.63
2022-08-26T18:54:06.424Z,2.00
2022-08-26T18:56:35.548Z,2.50
2022-08-26T18:59:03.357Z,1.73
2022-08-26T19:01:31.113Z,1.85
2022-08-26T19:03:59.454Z,1.80
2022-08-26T19:06:28.327Z,1.70
2022-08-26T19:08:55.681Z,1.90
2022-08-26T19:11:31.985Z,2.35
2022-08-26T19:14:03.109Z,1.98
2022-08-26T19:16:30.752Z,2.03
2022-08-26T19:18:58.872Z,2.15
2022-08-26T19:21:25.787Z,2.03
2022-08-26T19:23:57.190Z,2.00
2022-08-26T19:26:24.387Z,1.60
2022-08-26T19:28:51.222Z,2.20
2022-08-26T19:31:17.910Z,1.85
2022-08-26T19:33:45.490Z,1.45
2022-08-26T19:36:18.527Z,1.58
2022-08-26T19:38:46.129Z,1.63
2022-08-26T19:41:20.941Z,1.90
2022-08-26T19:43:47.968Z,2.05
2022-08-26T19:46:20.636Z,2.03
2022-08-26T19:48:49.941Z,1.58
2022-08-26T19:51:31.241Z,1.73
2022-08-26T19:53:59.840Z,2.88
2022-08-26T19:56:28.048Z,1.92
2022-08-26T19:58:55.491Z,2.20
2022-08-26T20:01:22.696Z,1.70
2022-08-26T20:03:49.511Z,1.95
2022-08-26T20:06:18.227Z,2.55
2022-08-26T20:08:45.119Z,2.05
2022-08-26T20:11:17.006Z,2.00
2022-08-26T20:13:44.689Z,2.17
2022-08-26T20:16:12.250Z,2.80
2022-08-26T20:19:01.948Z,2.33
2022-08-26T20:21:31.601Z,2.67
2022-08-26T20:24:07.227Z,2.30
2022-08-26T20:26:35.785Z,2.28
2022-08-26T20:29:02.612Z,1.85
2022-08-26T20:31:29.814Z,2.20
2022-08-26T20:33:56.673Z,2.40
2022-08-26T20:36:25.901Z,2.30
2022-08-26T20:38:52.842Z,2.33
2022-08-26T20:41:19.533Z,2.05
2022-08-26T20:43:47.139Z,2.20
2022-08-26T20:46:17.961Z,2.03
2022-08-26T20:48:47.140Z,2.50
2022-08-26T20:51:14.102Z,2.25
2022-08-26T20:53:41.394Z,2.55
2022-08-26T20:56:10.986Z,2.08
2022-08-26T20:58:38.457Z,2.65
2022-08-26T21:01:08.048Z,1.92
2022-08-26T21:03:35.875Z,2.58
2022-08-26T21:06:03.178Z,2.67
2022-08-26T21:08:29.792Z,2.40
2022-08-26T21:10:59.717Z,2.45
2022-08-26T21:13:26.262Z,2.13
2022-08-26T21:15:56.827Z,2.60
2022-08-26T21:18:23.612Z,2.50
2022-08-26T21:20:51.594Z,2.60
2022-08-26T21:23:18.832Z,2.55
2022-08-26T21:25:46.065Z,2.42
2022-08-26T21:28:12.849Z,2.42
2022-08-26T21:30:40.963Z,2.33
2022-08-26T21:33:08.591Z,2.25
2022-08-26T21:35:35.179Z,2.72
2022-08-26T21:38:01.796Z,2.83
2022-08-26T21:40:28.453Z,2.88
2022-08-26T21:42:55.046Z,3.15
2022-08-26T21:45:21.785Z,2.95
2022-08-26T21:47:48.469Z,2.38
2022-08-26T21:50:15.126Z,2.75
2022-08-26T21:52:41.695Z,2.38
2022-08-26T21:55:11.590Z,2.47
2022-08-26T21:57:38.697Z,2.60
2022-08-26T22:00:08.876Z,2.80
2022-08-26T22:02:37.048Z,2.72
2022-08-26T22:05:04.123Z,2.55
2022-08-26T22:07:30.742Z,2.70
2022-08-26T22:09:57.323Z,2.90
2022-08-26T22:12:24.060Z,3.58
2022-08-26T22:14:50.727Z,2.72
2022-08-26T22:17:17.308Z,2.53
2022-08-26T22:19:45.794Z,3.25
2022-08-26T22:22:13.706Z,2.90
2022-08-26T22:24:40.224Z,2.83
2022-08-26T22:27:07.082Z,2.50
2022-08-26T22:29:33.657Z,2.70
2022-08-26T22:32:01.194Z,3.00
2022-08-26T22:34:28.404Z,2.88
2022-08-26T22:36:55.727Z,2.58
2022-08-26T22:39:25.011Z,2.88
2022-08-26T22:41:53.418Z,2.25
2022-08-26T22:44:22.227Z,2.88
2022-08-26T22:46:50.344Z,2.60
2022-08-26T22:49:17.199Z,2.90
2022-08-26T22:51:46.934Z,2.60
2022-08-26T22:54:14.874Z,2.90
2022-08-26T22:56:41.647Z,2.88
2022-08-26T22:59:08.766Z,3.10
2022-08-26T23:01:38.348Z,2.50
2022-08-26T23:04:06.587Z,2.85
2022-08-26T23:06:36.409Z,2.63
2022-08-26T23:09:03.516Z,2.50
2022-08-26T23:11:30.058Z,2.97
2022-08-26T23:13:56.654Z,2.92
2022-08-26T23:16:23.358Z,3.80
2022-08-26T23:18:50.435Z,2.70
2022-08-26T23:21:16.943Z,3.05
2022-08-26T23:23:45.380Z,3.05
2022-08-26T23:26:15.505Z,3.08
2022-08-26T23:28:44.083Z,2.58
2022-08-26T23:31:10.667Z,3.25
2022-08-26T23:33:55.848Z,3.60
2022-08-26T23:36:25.051Z,3.88
2022-08-26T23:38:53.047Z,3.10
2022-08-26T23:41:22.284Z,2.63
2022-08-26T23:43:49.670Z,2.78
2022-08-26T23:46:16.408Z,2.90
2022-08-26T23:48:43.061Z,2.42
2022-08-26T23:51:29.290Z,3.17
2022-08-26T23:53:56.042Z,2.47
2022-08-26T23:56:22.552Z,3.05
2022-08-26T23:58:49.207Z,2.83
